sensor_id;sensor_type;location;lat;lon;timestamp;P1;durP1;ratioP1;P2;durP2;ratioP2
3341;SDS011;1684;50.748;6.154;2023-04-01T00:01:03;5.00;;;1.63;;
3341;SDS011;1684;50.748;6.154;2023-04-01T00:03:32;4.97;;;1.43;;
3341;SDS011;1684;50.748;6.154;2023-04-01T00:06:02;3.90;;;1.10;;
3341;SDS011;1684;50.748;6.154;2023-04-01T00:08:30;4.10;;;1.13;;
3341;SDS011;1684;50.748;6.154;2023-04-01T00:10:58;5.53;;;1.20;;
3341;SDS011;1684;50.748;6.154;2023-04-01T00:13:27;5.13;;;1.33;;
3341;SDS011;1684;50.748;6.154;2023-04-01T00:15:55;3.90;;;1.00;;
3341;SDS011;1684;50.748;6.154;2023-04-01T00:18:25;2.40;;;0.80;;
3341;SDS011;1684;50.748;6.154;2023-04-01T00:20:53;3.80;;;1.10;;
3341;SDS011;1684;50.748;6.154;2023-04-01T00:23:23;4.57;;;1.20;;
3341;SDS011;1684;50.748;6.154;2023-04-01T00:25:52;4.53;;;0.90;;
3341;SDS011;1684;50.748;6.154;2023-04-01T00:28:20;2.57;;;0.80;;
3341;SDS011;1684;50.748;6.154;2023-04-01T00:30:48;3.20;;;1.00;;
3341;SDS011;1684;50.748;6.154;2023-04-01T00:33:17;7.87;;;3.60;;
3341;SDS011;1684;50.748;6.154;2023-04-01T00:35:46;4.73;;;1.03;;
3341;SDS011;1684;50.748;6.154;2023-04-01T00:38:14;5.13;;;0.97;;
3341;SDS011;1684;50.748;6.154;2023-04-01T00:40:46;3.33;;;0.80;;
3341;SDS011;1684;50.748;6.154;2023-04-01T00:43:15;4.70;;;0.70;;
3341;SDS011;1684;50.748;6.154;2023-04-01T00:45:46;3.50;;;0.90;;
3341;SDS011;1684;50.748;6.154;2023-04-01T00:48:16;2.80;;;0.90;;
3341;SDS011;1684;50.748;6.154;2023-04-01T00:50:47;2.93;;;0.60;;
3341;SDS011;1684;50.748;6.154;2023-04-01T00:53:17;3.33;;;1.17;;
3341;SDS011;1684;50.748;6.154;2023-04-01T00:55:49;4.07;;;1.20;;
3341;SDS011;1684;50.748;6.154;2023-04-01T00:58:18;3.10;;;0.90;;
3341;SDS011;1684;50.748;6.154;2023-04-01T01:00:49;2.90;;;0.90;;
3341;SDS011;1684;50.748;6.154;2023-04-01T01:03:18;5.40;;;0.80;;
3341;SDS011;1684;50.748;6.154;2023-04-01T01:05:54;2.80;;;0.70;;
3341;SDS011;1684;50.748;6.154;2023-04-01T01:08:28;2.40;;;0.70;;
3341;SDS011;1684;50.748;6.154;2023-04-01T01:10:59;3.37;;;0.90;;
3341;SDS011;1684;50.748;6.154;2023-04-01T01:13:29;2.57;;;0.70;;
3341;SDS011;1684;50.748;6.154;2023-04-01T01:16:03;3.03;;;0.87;;
3341;SDS011;1684;50.748;6.154;2023-04-01T01:18:33;5.43;;;0.90;;
3341;SDS011;1684;50.748;6.154;2023-04-01T01:35:27;1.87;;;0.40;;
3341;SDS011;1684;50.748;6.154;2023-04-01T01:37:59;1.90;;;0.40;;
3341;SDS011;1684;50.748;6.154;2023-04-01T01:40:28;1.83;;;0.30;;
3341;SDS011;1684;50.748;6.154;2023-04-01T01:42:59;1.80;;;0.30;;
3341;SDS011;1684;50.748;6.154;2023-04-01T01:45:27;1.90;;;0.40;;
3341;SDS011;1684;50.748;6.154;2023-04-01T01:47:57;1.90;;;0.40;;
3341;SDS011;1684;50.748;6.154;2023-04-01T01:50:28;1.90;;;0.40;;
3341;SDS011;1684;50.748;6.154;2023-04-01T01:53:01;1.90;;;0.30;;
3341;SDS011;1684;50.748;6.154;2023-04-01T01:55:30;1.90;;;0.40;;
3341;SDS011;1684;50.748;6.154;2023-04-01T01:57:59;1.87;;;0.40;;
3341;SDS011;1684;50.748;6.154;2023-04-01T02:00:28;1.80;;;0.30;;
3341;SDS011;1684;50.748;6.154;2023-04-01T02:02:57;1.90;;;0.40;;
3341;SDS011;1684;50.748;6.154;2023-04-01T02:05:26;1.90;;;0.40;;
3341;SDS011;1684;50.748;6.154;2023-04-01T02:08:00;1.80;;;0.30;;
3341;SDS011;1684;50.748;6.154;2023-04-01T02:10:29;1.80;;;0.40;;
3341;SDS011;1684;50.748;6.154;2023-04-01T02:13:00;1.90;;;0.40;;
3341;SDS011;1684;50.748;6.154;2023-04-01T02:15:29;1.90;;;0.40;;
3341;SDS011;1684;50.748;6.154;2023-04-01T02:17:59;1.90;;;0.40;;
3341;SDS011;1684;50.748;6.154;2023-04-01T02:20:28;1.90;;;0.40;;
3341;SDS011;1684;50.748;6.154;2023-04-01T02:22:58;1.87;;;0.40;;
3341;SDS011;1684;50.748;6.154;2023-04-01T02:25:27;1.90;;;0.40;;
3341;SDS011;1684;50.748;6.154;2023-04-01T02:27:57;1.90;;;0.40;;
3341;SDS011;1684;50.748;6.154;2023-04-01T02:30:26;1.83;;;0.30;;
3341;SDS011;1684;50.748;6.154;2023-04-01T02:32:55;1.87;;;0.40;;
3341;SDS011;1684;50.748;6.154;2023-04-01T02:35:24;1.83;;;0.40;;
3341;SDS011;1684;50.748;6.154;2023-04-01T02:37:55;1.90;;;0.40;;
3341;SDS011;1684;50.748;6.154;2023-04-01T02:40:25;1.83;;;0.40;;
3341;SDS011;1684;50.748;6.154;2023-04-01T02:42:53;1.90;;;0.40;;
3341;SDS011;1684;50.748;6.154;2023-04-01T02:45:21;1.90;;;0.40;;
3341;SDS011;1684;50.748;6.154;2023-04-01T02:47:49;1.83;;;0.40;;
3341;SDS011;1684;50.748;6.154;2023-04-01T02:50:18;1.90;;;0.40;;
3341;SDS011;1684;50.748;6.154;2023-04-01T02:52:46;1.87;;;0.40;;
3341;SDS011;1684;50.748;6.154;2023-04-01T02:55:14;1.80;;;0.40;;
3341;SDS011;1684;50.748;6.154;2023-04-01T02:57:44;1.90;;;0.40;;
3341;SDS011;1684;50.748;6.154;2023-04-01T03:00:13;1.90;;;0.40;;
3341;SDS011;1684;50.748;6.154;2023-04-01T03:02:41;1.90;;;0.40;;
3341;SDS011;1684;50.748;6.154;2023-04-01T03:05:10;1.87;;;0.40;;
3341;SDS011;1684;50.748;6.154;2023-04-01T03:07:38;1.90;;;0.40;;
3341;SDS011;1684;50.748;6.154;2023-04-01T03:10:07;1.87;;;0.40;;
3341;SDS011;1684;50.748;6.154;2023-04-01T03:12:36;1.80;;;0.40;;
3341;SDS011;1684;50.748;6.154;2023-04-01T03:15:06;1.83;;;0.37;;
3341;SDS011;1684;50.748;6.154;2023-04-01T03:17:36;1.80;;;0.40;;
3341;SDS011;1684;50.748;6.154;2023-04-01T03:20:05;1.80;;;0.40;;
3341;SDS011;1684;50.748;6.154;2023-04-01T03:22:34;1.87;;;0.40;;
3341;SDS011;1684;50.748;6.154;2023-04-01T03:25:03;1.90;;;0.40;;
3341;SDS011;1684;50.748;6.154;2023-04-01T03:27:31;1.87;;;0.40;;
3341;SDS011;1684;50.748;6.154;2023-04-01T03:29:59;1.90;;;0.40;;
3341;SDS011;1684;50.748;6.154;2023-04-01T03:32:30;1.83;;;0.40;;
3341;SDS011;1684;50.748;6.154;2023-04-01T03:34:58;1.90;;;0.40;;
3341;SDS011;1684;50.748;6.154;2023-04-01T03:37:27;1.80;;;0.40;;
3341;SDS011;1684;50.748;6.154;2023-04-01T03:39:55;1.83;;;0.40;;
3341;SDS011;1684;50.748;6.154;2023-04-01T03:42:23;1.80;;;0.40;;
3341;SDS011;1684;50.748;6.154;2023-04-01T03:44:51;1.90;;;0.40;;
3341;SDS011;1684;50.748;6.154;2023-04-01T03:47:20;1.80;;;0.40;;
3341;SDS011;1684;50.748;6.154;2023-04-01T03:49:49;1.80;;;0.40;;
3341;SDS011;1684;50.748;6.154;2023-04-01T03:52:17;1.87;;;0.40;;
3341;SDS011;1684;50.748;6.154;2023-04-01T03:54:46;1.90;;;0.30;;
3341;SDS011;1684;50.748;6.154;2023-04-01T03:57:14;1.90;;;0.40;;
3341;SDS011;1684;50.748;6.154;2023-04-01T03:59:42;1.80;;;0.40;;
3341;SDS011;1684;50.748;6.154;2023-04-01T04:02:10;1.90;;;0.40;;
3341;SDS011;1684;50.748;6.154;2023-04-01T04:04:39;1.90;;;0.40;;
3341;SDS011;1684;50.748;6.154;2023-04-01T04:07:10;1.87;;;0.40;;
3341;SDS011;1684;50.748;6.154;2023-04-01T04:09:38;1.90;;;0.40;;
3341;SDS011;1684;50.748;6.154;2023-04-01T04:12:06;1.90;;;0.40;;
3341;SDS011;1684;50.748;6.154;2023-04-01T04:14:35;1.87;;;0.40;;
3341;SDS011;1684;50.748;6.154;2023-04-01T04:17:03;1.87;;;0.40;;
3341;SDS011;1684;50.748;6.154;2023-04-01T04:19:32;1.90;;;0.40;;
3341;SDS011;1684;50.748;6.154;2023-04-01T04:22:01;1.87;;;0.30;;
3341;SDS011;1684;50.748;6.154;2023-04-01T04:24:30;1.90;;;0.40;;
3341;SDS011;1684;50.748;6.154;2023-04-01T04:26:58;1.80;;;0.40;;
3341;SDS011;1684;50.748;6.154;2023-04-01T04:29:27;1.87;;;0.40;;
3341;SDS011;1684;50.748;6.154;2023-04-01T04:31:55;1.90;;;0.40;;
3341;SDS011;1684;50.748;6.154;2023-04-01T04:34:23;1.87;;;0.33;;
3341;SDS011;1684;50.748;6.154;2023-04-01T04:36:52;1.87;;;0.40;;
3341;SDS011;1684;50.748;6.154;2023-04-01T04:39:20;1.83;;;0.40;;
3341;SDS011;1684;50.748;6.154;2023-04-01T04:41:49;1.90;;;0.40;;
3341;SDS011;1684;50.748;6.154;2023-04-01T04:44:18;1.83;;;0.40;;
3341;SDS011;1684;50.748;6.154;2023-04-01T04:46:46;1.83;;;0.37;;
3341;SDS011;1684;50.748;6.154;2023-04-01T04:49:14;1.87;;;0.40;;
3341;SDS011;1684;50.748;6.154;2023-04-01T04:51:42;1.90;;;0.40;;
3341;SDS011;1684;50.748;6.154;2023-04-01T04:54:11;1.87;;;0.40;;
3341;SDS011;1684;50.748;6.154;2023-04-01T04:56:39;1.87;;;0.40;;
3341;SDS011;1684;50.748;6.154;2023-04-01T04:59:09;1.80;;;0.30;;
3341;SDS011;1684;50.748;6.154;2023-04-01T05:01:38;1.90;;;0.40;;
3341;SDS011;1684;50.748;6.154;2023-04-01T05:04:07;1.90;;;0.40;;
3341;SDS011;1684;50.748;6.154;2023-04-01T05:06:35;1.90;;;0.40;;
3341;SDS011;1684;50.748;6.154;2023-04-01T05:09:03;1.90;;;0.40;;
3341;SDS011;1684;50.748;6.154;2023-04-01T05:11:31;1.80;;;0.30;;
3341;SDS011;1684;50.748;6.154;2023-04-01T05:14:00;1.90;;;0.40;;
3341;SDS011;1684;50.748;6.154;2023-04-01T05:16:29;1.80;;;0.40;;
3341;SDS011;1684;50.748;6.154;2023-04-01T05:18:58;1.90;;;0.40;;
3341;SDS011;1684;50.748;6.154;2023-04-01T05:21:26;1.90;;;0.40;;
3341;SDS011;1684;50.748;6.154;2023-04-01T05:23:54;1.83;;;0.40;;
3341;SDS011;1684;50.748;6.154;2023-04-01T05:26:23;1.80;;;0.30;;
3341;SDS011;1684;50.748;6.154;2023-04-01T05:28:51;1.83;;;0.40;;
3341;SDS011;1684;50.748;6.154;2023-04-01T05:31:19;1.87;;;0.40;;
3341;SDS011;1684;50.748;6.154;2023-04-01T05:33:51;1.83;;;0.40;;
3341;SDS011;1684;50.748;6.154;2023-04-01T05:36:20;1.87;;;0.40;;
3341;SDS011;1684;50.748;6.154;2023-04-01T05:38:48;1.87;;;0.40;;
3341;SDS011;1684;50.748;6.154;2023-04-01T05:41:16;1.83;;;0.40;;
3341;SDS011;1684;50.748;6.154;2023-04-01T05:43:45;1.87;;;0.40;;
3341;SDS011;1684;50.748;6.154;2023-04-01T05:46:13;1.90;;;0.40;;
3341;SDS011;1684;50.748;6.154;2023-04-01T05:48:41;1.83;;;0.40;;
3341;SDS011;1684;50.748;6.154;2023-04-01T05:51:13;1.90;;;0.40;;
3341;SDS011;1684;50.748;6.154;2023-04-01T05:53:41;1.83;;;0.40;;
3341;SDS011;1684;50.748;6.154;2023-04-01T05:56:09;1.90;;;0.40;;
3341;SDS011;1684;50.748;6.154;2023-04-01T05:58:38;1.83;;;0.40;;
3341;SDS011;1684;50.748;6.154;2023-04-01T06:01:07;1.80;;;0.30;;
3341;SDS011;1684;50.748;6.154;2023-04-01T06:03:41;1.90;;;0.40;;
3341;SDS011;1684;50.748;6.154;2023-04-01T06:06:12;1.80;;;0.30;;
3341;SDS011;1684;50.748;6.154;2023-04-01T06:08:41;1.83;;;0.40;;
3341;SDS011;1684;50.748;6.154;2023-04-01T06:11:14;1.80;;;0.30;;
3341;SDS011;1684;50.748;6.154;2023-04-01T06:13:47;1.83;;;0.30;;
3341;SDS011;1684;50.748;6.154;2023-04-01T06:16:21;1.83;;;0.40;;
3341;SDS011;1684;50.748;6.154;2023-04-01T06:18:58;1.80;;;0.30;;
3341;SDS011;1684;50.748;6.154;2023-04-01T06:21:44;1.80;;;0.40;;
3341;SDS011;1684;50.748;6.154;2023-04-01T06:24:18;1.90;;;0.40;;
3341;SDS011;1684;50.748;6.154;2023-04-01T06:26:50;1.83;;;0.40;;
3341;SDS011;1684;50.748;6.154;2023-04-01T06:29:29;1.90;;;0.40;;
3341;SDS011;1684;50.748;6.154;2023-04-01T06:32:15;1.90;;;0.40;;
3341;SDS011;1684;50.748;6.154;2023-04-01T06:34:48;1.90;;;0.40;;
3341;SDS011;1684;50.748;6.154;2023-04-01T06:37:27;1.90;;;0.40;;
3341;SDS011;1684;50.748;6.154;2023-04-01T06:40:05;1.83;;;0.40;;
3341;SDS011;1684;50.748;6.154;2023-04-01T06:42:40;1.87;;;0.40;;
3341;SDS011;1684;50.748;6.154;2023-04-01T06:45:15;1.80;;;0.30;;
3341;SDS011;1684;50.748;6.154;2023-04-01T06:47:51;1.90;;;0.40;;
3341;SDS011;1684;50.748;6.154;2023-04-01T06:50:26;1.83;;;0.40;;
3341;SDS011;1684;50.748;6.154;2023-04-01T06:53:00;1.80;;;0.40;;
3341;SDS011;1684;50.748;6.154;2023-04-01T06:55:32;1.90;;;0.40;;
3341;SDS011;1684;50.748;6.154;2023-04-01T06:58:04;1.90;;;0.40;;
3341;SDS011;1684;50.748;6.154;2023-04-01T07:00:35;1.80;;;0.40;;
3341;SDS011;1684;50.748;6.154;2023-04-01T07:03:09;1.80;;;0.40;;
3341;SDS011;1684;50.748;6.154;2023-04-01T07:05:41;1.90;;;0.60;;
3341;SDS011;1684;50.748;6.154;2023-04-01T07:08:11;1.90;;;0.40;;
3341;SDS011;1684;50.748;6.154;2023-04-01T07:10:43;1.80;;;0.40;;
3341;SDS011;1684;50.748;6.154;2023-04-01T07:13:14;1.87;;;0.40;;
3341;SDS011;1684;50.748;6.154;2023-04-01T07:15:45;1.80;;;0.40;;
3341;SDS011;1684;50.748;6.154;2023-04-01T07:18:15;1.87;;;0.40;;
3341;SDS011;1684;50.748;6.154;2023-04-01T07:20:44;1.90;;;0.40;;
3341;SDS011;1684;50.748;6.154;2023-04-01T07:23:16;1.90;;;0.40;;
3341;SDS011;1684;50.748;6.154;2023-04-01T07:25:51;1.80;;;0.30;;
3341;SDS011;1684;50.748;6.154;2023-04-01T07:28:19;1.80;;;0.40;;
3341;SDS011;1684;50.748;6.154;2023-04-01T07:30:53;1.80;;;0.30;;
3341;SDS011;1684;50.748;6.154;2023-04-01T07:33:27;1.90;;;0.40;;
3341;SDS011;1684;50.748;6.154;2023-04-01T07:35:58;1.80;;;0.40;;
3341;SDS011;1684;50.748;6.154;2023-04-01T07:38:34;1.90;;;0.40;;
3341;SDS011;1684;50.748;6.154;2023-04-01T07:41:05;1.80;;;0.40;;
3341;SDS011;1684;50.748;6.154;2023-04-01T07:43:52;1.90;;;0.40;;
3341;SDS011;1684;50.748;6.154;2023-04-01T07:46:26;1.80;;;0.40;;
3341;SDS011;1684;50.748;6.154;2023-04-01T07:48:58;1.87;;;0.40;;
3341;SDS011;1684;50.748;6.154;2023-04-01T07:51:29;1.90;;;0.40;;
3341;SDS011;1684;50.748;6.154;2023-04-01T07:54:02;1.80;;;0.40;;
3341;SDS011;1684;50.748;6.154;2023-04-01T07:56:34;1.83;;;0.40;;
3341;SDS011;1684;50.748;6.154;2023-04-01T07:59:06;1.90;;;0.40;;
3341;SDS011;1684;50.748;6.154;2023-04-01T08:01:39;1.90;;;0.40;;
3341;SDS011;1684;50.748;6.154;2023-04-01T08:04:13;1.90;;;0.40;;
3341;SDS011;1684;50.748;6.154;2023-04-01T08:06:47;1.83;;;0.40;;
3341;SDS011;1684;50.748;6.154;2023-04-01T08:09:22;1.90;;;0.40;;
3341;SDS011;1684;50.748;6.154;2023-04-01T08:11:57;1.90;;;0.40;;
3341;SDS011;1684;50.748;6.154;2023-04-01T08:14:30;1.90;;;0.40;;
3341;SDS011;1684;50.748;6.154;2023-04-01T08:17:01;1.90;;;0.40;;
3341;SDS011;1684;50.748;6.154;2023-04-01T08:19:31;1.90;;;0.40;;
3341;SDS011;1684;50.748;6.154;2023-04-01T08:22:03;1.80;;;0.40;;
3341;SDS011;1684;50.748;6.154;2023-04-01T08:24:35;1.80;;;0.40;;
3341;SDS011;1684;50.748;6.154;2023-04-01T08:27:14;1.90;;;0.40;;
3341;SDS011;1684;50.748;6.154;2023-04-01T08:29:46;1.83;;;0.40;;
3341;SDS011;1684;50.748;6.154;2023-04-01T08:32:17;1.90;;;0.40;;
3341;SDS011;1684;50.748;6.154;2023-04-01T08:34:47;1.83;;;0.37;;
3341;SDS011;1684;50.748;6.154;2023-04-01T08:37:19;1.90;;;0.40;;
3341;SDS011;1684;50.748;6.154;2023-04-01T08:39:50;1.87;;;0.40;;
3341;SDS011;1684;50.748;6.154;2023-04-01T08:42:31;1.80;;;0.40;;
3341;SDS011;1684;50.748;6.154;2023-04-01T08:45:06;1.87;;;0.40;;
3341;SDS011;1684;50.748;6.154;2023-04-01T08:47:42;1.80;;;0.40;;
3341;SDS011;1684;50.748;6.154;2023-04-01T08:50:26;1.80;;;0.40;;
3341;SDS011;1684;50.748;6.154;2023-04-01T08:52:59;1.90;;;0.40;;
3341;SDS011;1684;50.748;6.154;2023-04-01T08:55:34;1.83;;;0.33;;
3341;SDS011;1684;50.748;6.154;2023-04-01T08:58:11;1.87;;;0.40;;
3341;SDS011;1684;50.748;6.154;2023-04-01T09:00:43;1.83;;;0.40;;
3341;SDS011;1684;50.748;6.154;2023-04-01T09:03:19;1.83;;;0.33;;
3341;SDS011;1684;50.748;6.154;2023-04-01T09:08:44;1.90;;;0.40;;
3341;SDS011;1684;50.748;6.154;2023-04-01T09:11:22;1.90;;;0.40;;
3341;SDS011;1684;50.748;6.154;2023-04-01T09:16:51;1.87;;;0.40;;
3341;SDS011;1684;50.748;6.154;2023-04-01T09:19:28;1.90;;;0.40;;
3341;SDS011;1684;50.748;6.154;2023-04-01T09:22:05;1.80;;;0.40;;
3341;SDS011;1684;50.748;6.154;2023-04-01T09:24:52;1.90;;;0.40;;
3341;SDS011;1684;50.748;6.154;2023-04-01T09:27:28;1.83;;;0.30;;
3341;SDS011;1684;50.748;6.154;2023-04-01T09:32:48;1.87;;;0.40;;
3341;SDS011;1684;50.748;6.154;2023-04-01T09:35:22;1.90;;;0.40;;
3341;SDS011;1684;50.748;6.154;2023-04-01T09:37:57;1.80;;;0.40;;
3341;SDS011;1684;50.748;6.154;2023-04-01T09:40:31;1.90;;;0.40;;
3341;SDS011;1684;50.748;6.154;2023-04-01T09:43:15;1.87;;;0.40;;
3341;SDS011;1684;50.748;6.154;2023-04-01T09:45:54;1.80;;;0.30;;
3341;SDS011;1684;50.748;6.154;2023-04-01T09:48:29;1.90;;;0.40;;
3341;SDS011;1684;50.748;6.154;2023-04-01T09:51:01;1.90;;;0.40;;
3341;SDS011;1684;50.748;6.154;2023-04-01T09:53:36;1.90;;;0.40;;
3341;SDS011;1684;50.748;6.154;2023-04-01T09:59:05;1.90;;;0.40;;
3341;SDS011;1684;50.748;6.154;2023-04-01T10:01:39;1.90;;;0.40;;
3341;SDS011;1684;50.748;6.154;2023-04-01T10:07:01;1.90;;;0.40;;
3341;SDS011;1684;50.748;6.154;2023-04-01T10:12:31;1.90;;;0.40;;
3341;SDS011;1684;50.748;6.154;2023-04-01T10:18:00;1.90;;;0.40;;
3341;SDS011;1684;50.748;6.154;2023-04-01T10:20:39;1.87;;;0.40;;
3341;SDS011;1684;50.748;6.154;2023-04-01T10:23:23;1.90;;;0.40;;
3341;SDS011;1684;50.748;6.154;2023-04-01T10:29:12;1.83;;;0.40;;
3341;SDS011;1684;50.748;6.154;2023-04-01T10:32:03;1.90;;;0.40;;
3341;SDS011;1684;50.748;6.154;2023-04-01T10:37:26;1.83;;;0.40;;
3341;SDS011;1684;50.748;6.154;2023-04-01T10:40:05;1.87;;;0.30;;
3341;SDS011;1684;50.748;6.154;2023-04-01T10:42:50;1.90;;;0.40;;
3341;SDS011;1684;50.748;6.154;2023-04-01T10:48:10;1.87;;;0.40;;
3341;SDS011;1684;50.748;6.154;2023-04-01T10:50:48;1.90;;;0.40;;
3341;SDS011;1684;50.748;6.154;2023-04-01T10:53:33;1.90;;;0.40;;
3341;SDS011;1684;50.748;6.154;2023-04-01T10:56:15;1.87;;;0.40;;
3341;SDS011;1684;50.748;6.154;2023-04-01T10:59:02;1.90;;;0.40;;
3341;SDS011;1684;50.748;6.154;2023-04-01T11:01:49;1.90;;;0.40;;
3341;SDS011;1684;50.748;6.154;2023-04-01T11:16:12;1.90;;;0.40;;
3341;SDS011;1684;50.748;6.154;2023-04-01T11:21:49;1.90;;;0.40;;
3341;SDS011;1684;50.748;6.154;2023-04-01T11:24:30;1.90;;;0.40;;
3341;SDS011;1684;50.748;6.154;2023-04-01T11:27:07;1.90;;;0.40;;
3341;SDS011;1684;50.748;6.154;2023-04-01T11:29:40;1.87;;;0.30;;
3341;SDS011;1684;50.748;6.154;2023-04-01T11:32:41;1.90;;;0.40;;
3341;SDS011;1684;50.748;6.154;2023-04-01T11:38:06;1.90;;;0.40;;
3341;SDS011;1684;50.748;6.154;2023-04-01T11:40:38;1.80;;;0.40;;
3341;SDS011;1684;50.748;6.154;2023-04-01T11:43:10;1.90;;;0.40;;
3341;SDS011;1684;50.748;6.154;2023-04-01T11:45:56;1.80;;;0.30;;
3341;SDS011;1684;50.748;6.154;2023-04-01T11:48:39;1.83;;;0.40;;
3341;SDS011;1684;50.748;6.154;2023-04-01T11:51:24;1.90;;;0.40;;
3341;SDS011;1684;50.748;6.154;2023-04-01T11:53:58;1.90;;;0.40;;
3341;SDS011;1684;50.748;6.154;2023-04-01T11:56:32;1.90;;;0.40;;
3341;SDS011;1684;50.748;6.154;2023-04-01T11:59:12;1.90;;;0.30;;
3341;SDS011;1684;50.748;6.154;2023-04-01T12:01:47;1.90;;;0.40;;
3341;SDS011;1684;50.748;6.154;2023-04-01T12:04:29;1.87;;;0.40;;
3341;SDS011;1684;50.748;6.154;2023-04-01T12:07:03;1.90;;;0.40;;
3341;SDS011;1684;50.748;6.154;2023-04-01T12:09:35;1.90;;;0.40;;
3341;SDS011;1684;50.748;6.154;2023-04-01T12:12:10;1.90;;;0.40;;
3341;SDS011;1684;50.748;6.154;2023-04-01T12:14:41;1.90;;;0.40;;
3341;SDS011;1684;50.748;6.154;2023-04-01T12:17:15;1.90;;;0.40;;
3341;SDS011;1684;50.748;6.154;2023-04-01T12:19:48;1.87;;;0.33;;
3341;SDS011;1684;50.748;6.154;2023-04-01T12:22:23;1.90;;;0.40;;
3341;SDS011;1684;50.748;6.154;2023-04-01T12:24:54;1.90;;;0.37;;
3341;SDS011;1684;50.748;6.154;2023-04-01T12:33:05;1.83;;;0.30;;
3341;SDS011;1684;50.748;6.154;2023-04-01T12:35:41;1.90;;;0.40;;
3341;SDS011;1684;50.748;6.154;2023-04-01T12:38:14;1.90;;;0.30;;
3341;SDS011;1684;50.748;6.154;2023-04-01T12:40:50;1.90;;;0.40;;
3341;SDS011;1684;50.748;6.154;2023-04-01T12:46:07;1.90;;;0.40;;
3341;SDS011;1684;50.748;6.154;2023-04-01T12:48:50;1.90;;;0.40;;
3341;SDS011;1684;50.748;6.154;2023-04-01T12:51:38;1.90;;;0.40;;
3341;SDS011;1684;50.748;6.154;2023-04-01T12:54:18;1.90;;;0.40;;
3341;SDS011;1684;50.748;6.154;2023-04-01T12:56:50;1.87;;;0.40;;
3341;SDS011;1684;50.748;6.154;2023-04-01T12:59:35;1.90;;;0.40;;
3341;SDS011;1684;50.748;6.154;2023-04-01T13:02:11;1.90;;;0.40;;
3341;SDS011;1684;50.748;6.154;2023-04-01T13:04:56;1.90;;;0.30;;
3341;SDS011;1684;50.748;6.154;2023-04-01T13:10:13;1.90;;;0.30;;
3341;SDS011;1684;50.748;6.154;2023-04-01T13:12:50;1.90;;;0.40;;
3341;SDS011;1684;50.748;6.154;2023-04-01T13:15:31;1.90;;;0.30;;
3341;SDS011;1684;50.748;6.154;2023-04-01T13:18:03;1.83;;;0.40;;
3341;SDS011;1684;50.748;6.154;2023-04-01T13:20:41;1.90;;;0.40;;
3341;SDS011;1684;50.748;6.154;2023-04-01T13:23:14;1.87;;;0.37;;
3341;SDS011;1684;50.748;6.154;2023-04-01T13:25:46;1.90;;;0.30;;
3341;SDS011;1684;50.748;6.154;2023-04-01T13:28:39;1.90;;;0.40;;
3341;SDS011;1684;50.748;6.154;2023-04-01T13:31:09;1.90;;;0.40;;
3341;SDS011;1684;50.748;6.154;2023-04-01T13:34:02;1.90;;;0.37;;
3341;SDS011;1684;50.748;6.154;2023-04-01T13:36:35;1.90;;;0.40;;
3341;SDS011;1684;50.748;6.154;2023-04-01T13:39:09;1.90;;;0.40;;
3341;SDS011;1684;50.748;6.154;2023-04-01T13:41:47;1.90;;;0.30;;
3341;SDS011;1684;50.748;6.154;2023-04-01T13:44:20;1.83;;;0.40;;
3341;SDS011;1684;50.748;6.154;2023-04-01T13:47:03;1.87;;;0.40;;
3341;SDS011;1684;50.748;6.154;2023-04-01T13:52:37;1.80;;;0.30;;
3341;SDS011;1684;50.748;6.154;2023-04-01T13:58:00;1.90;;;0.40;;
3341;SDS011;1684;50.748;6.154;2023-04-01T14:00:39;1.90;;;0.40;;
3341;SDS011;1684;50.748;6.154;2023-04-01T14:06:10;1.87;;;0.30;;
3341;SDS011;1684;50.748;6.154;2023-04-01T14:08:42;1.90;;;0.30;;
3341;SDS011;1684;50.748;6.154;2023-04-01T14:11:17;1.90;;;0.40;;
3341;SDS011;1684;50.748;6.154;2023-04-01T14:13:51;1.90;;;0.40;;
3341;SDS011;1684;50.748;6.154;2023-04-01T14:16:32;1.90;;;0.40;;
3341;SDS011;1684;50.748;6.154;2023-04-01T14:19:08;1.83;;;0.30;;
3341;SDS011;1684;50.748;6.154;2023-04-01T14:21:42;1.90;;;0.30;;
3341;SDS011;1684;50.748;6.154;2023-04-01T14:27:02;1.90;;;0.40;;
3341;SDS011;1684;50.748;6.154;2023-04-01T14:32:15;1.90;;;0.40;;
3341;SDS011;1684;50.748;6.154;2023-04-01T14:34:53;1.90;;;0.40;;
3341;SDS011;1684;50.748;6.154;2023-04-01T14:37:31;1.90;;;0.40;;
3341;SDS011;1684;50.748;6.154;2023-04-01T14:42:55;1.90;;;0.40;;
3341;SDS011;1684;50.748;6.154;2023-04-01T14:45:27;1.90;;;0.40;;
3341;SDS011;1684;50.748;6.154;2023-04-01T14:47:59;2.33;;;1.90;;
3341;SDS011;1684;50.748;6.154;2023-04-01T14:50:40;1.90;;;0.40;;
3341;SDS011;1684;50.748;6.154;2023-04-01T14:53:11;1.90;;;0.40;;
3341;SDS011;1684;50.748;6.154;2023-04-01T14:55:46;1.80;;;0.33;;
3341;SDS011;1684;50.748;6.154;2023-04-01T14:58:16;1.90;;;0.40;;
3341;SDS011;1684;50.748;6.154;2023-04-01T15:03:36;1.87;;;0.30;;
3341;SDS011;1684;50.748;6.154;2023-04-01T15:06:24;1.90;;;0.40;;
3341;SDS011;1684;50.748;6.154;2023-04-01T15:08:54;1.87;;;0.30;;
3341;SDS011;1684;50.748;6.154;2023-04-01T15:11:28;1.90;;;0.40;;
3341;SDS011;1684;50.748;6.154;2023-04-01T15:16:49;1.90;;;0.40;;
3341;SDS011;1684;50.748;6.154;2023-04-01T15:19:22;1.87;;;0.30;;
3341;SDS011;1684;50.748;6.154;2023-04-01T15:24:41;1.90;;;0.40;;
3341;SDS011;1684;50.748;6.154;2023-04-01T15:27:16;1.80;;;0.30;;
3341;SDS011;1684;50.748;6.154;2023-04-01T15:29:53;1.90;;;0.40;;
3341;SDS011;1684;50.748;6.154;2023-04-01T15:32:29;1.83;;;0.40;;
3341;SDS011;1684;50.748;6.154;2023-04-01T15:35:03;1.87;;;0.37;;
3341;SDS011;1684;50.748;6.154;2023-04-01T15:37:38;1.90;;;0.40;;
3341;SDS011;1684;50.748;6.154;2023-04-01T15:40:14;1.90;;;0.40;;
3341;SDS011;1684;50.748;6.154;2023-04-01T15:42:47;1.90;;;0.40;;
3341;SDS011;1684;50.748;6.154;2023-04-01T15:45:25;1.90;;;0.40;;
3341;SDS011;1684;50.748;6.154;2023-04-01T15:48:01;1.83;;;0.40;;
3341;SDS011;1684;50.748;6.154;2023-04-01T15:50:48;1.90;;;0.40;;
3341;SDS011;1684;50.748;6.154;2023-04-01T15:53:23;1.87;;;0.37;;
3341;SDS011;1684;50.748;6.154;2023-04-01T15:55:55;1.90;;;0.40;;
3341;SDS011;1684;50.748;6.154;2023-04-01T15:58:40;1.90;;;0.40;;
3341;SDS011;1684;50.748;6.154;2023-04-01T16:01:15;1.83;;;0.40;;
3341;SDS011;1684;50.748;6.154;2023-04-01T16:03:48;1.90;;;0.40;;
3341;SDS011;1684;50.748;6.154;2023-04-01T16:09:09;1.90;;;0.40;;
3341;SDS011;1684;50.748;6.154;2023-04-01T16:11:41;1.90;;;0.40;;
3341;SDS011;1684;50.748;6.154;2023-04-01T16:14:14;1.83;;;0.30;;
3341;SDS011;1684;50.748;6.154;2023-04-01T16:16:53;1.90;;;0.30;;
3341;SDS011;1684;50.748;6.154;2023-04-01T16:19:29;1.87;;;0.40;;
3341;SDS011;1684;50.748;6.154;2023-04-01T16:22:00;1.87;;;0.40;;
3341;SDS011;1684;50.748;6.154;2023-04-01T16:24:32;1.90;;;0.40;;
3341;SDS011;1684;50.748;6.154;2023-04-01T16:27:06;1.90;;;0.40;;
3341;SDS011;1684;50.748;6.154;2023-04-01T16:29:39;1.90;;;0.30;;
3341;SDS011;1684;50.748;6.154;2023-04-01T16:32:15;3.20;;;1.83;;
3341;SDS011;1684;50.748;6.154;2023-04-01T16:34:47;3.47;;;2.03;;
3341;SDS011;1684;50.748;6.154;2023-04-01T16:37:27;4.47;;;1.90;;
3341;SDS011;1684;50.748;6.154;2023-04-01T16:40:02;5.27;;;2.60;;
3341;SDS011;1684;50.748;6.154;2023-04-01T16:42:39;3.80;;;2.20;;
3341;SDS011;1684;50.748;6.154;2023-04-01T16:45:15;4.10;;;2.50;;
3341;SDS011;1684;50.748;6.154;2023-04-01T16:47:46;3.70;;;2.10;;
3341;SDS011;1684;50.748;6.154;2023-04-01T16:50:18;4.67;;;2.00;;
3341;SDS011;1684;50.748;6.154;2023-04-01T16:52:55;3.80;;;2.27;;
3341;SDS011;1684;50.748;6.154;2023-04-01T16:55:35;4.40;;;1.93;;
3341;SDS011;1684;50.748;6.154;2023-04-01T16:58:05;3.43;;;1.90;;
3341;SDS011;1684;50.748;6.154;2023-04-01T17:00:36;3.90;;;2.53;;
3341;SDS011;1684;50.748;6.154;2023-04-01T17:03:08;4.30;;;2.80;;
3341;SDS011;1684;50.748;6.154;2023-04-01T17:05:48;3.27;;;1.90;;
3341;SDS011;1684;50.748;6.154;2023-04-01T17:08:22;5.60;;;2.83;;
3341;SDS011;1684;50.748;6.154;2023-04-01T17:10:53;6.60;;;2.40;;
3341;SDS011;1684;50.748;6.154;2023-04-01T17:13:29;4.20;;;2.17;;
3341;SDS011;1684;50.748;6.154;2023-04-01T17:16:10;4.87;;;2.60;;
3341;SDS011;1684;50.748;6.154;2023-04-01T17:18:42;4.00;;;2.67;;
3341;SDS011;1684;50.748;6.154;2023-04-01T17:21:13;6.23;;;2.97;;
3341;SDS011;1684;50.748;6.154;2023-04-01T17:23:45;4.33;;;2.80;;
3341;SDS011;1684;50.748;6.154;2023-04-01T17:26:19;5.20;;;2.77;;
3341;SDS011;1684;50.748;6.154;2023-04-01T17:28:52;5.13;;;3.10;;
3341;SDS011;1684;50.748;6.154;2023-04-01T17:31:26;5.13;;;3.43;;